RJKI(METAR)
06/25 08:00
METAR RJKI 242300Z AUTO 16005KT 130V210 9999 NSC 26/25 Q1011 RMK
A2986=
戻る
トップページへ戻る
IMOC Co,.Ltd.